createdAt,value
2018-12-29T00:01:34.073Z,102699.27
2018-12-29T00:04:02.992Z,102692.02
2018-12-29T00:06:34.111Z,102695.88
2018-12-29T00:09:22.295Z,102701.34
2018-12-29T00:12:10.401Z,102697.75
2018-12-29T00:14:39.260Z,102697.75
2018-12-29T00:17:08.158Z,102694.98
2018-12-29T00:22:31.188Z,102699.69
2018-12-29T00:25:19.334Z,102699.30
2018-12-29T00:28:07.474Z,102696.30
2018-12-29T00:30:36.460Z,102698.47
2018-12-29T00:33:24.925Z,102698.38
2018-12-29T00:35:53.824Z,102692.66
2018-12-29T00:38:41.925Z,102691.54
2018-12-29T00:41:10.761Z,102692.70
2018-12-29T00:43:39.552Z,102692.56
2018-12-29T00:46:08.616Z,102685.75
2018-12-29T00:48:37.525Z,102682.98
2018-12-29T00:54:13.613Z,102673.17
2018-12-29T00:57:01.712Z,102673.86
2018-12-29T00:59:30.569Z,102674.83
2018-12-29T01:01:59.397Z,102674.37
2018-12-29T01:04:47.539Z,102675.34
2018-12-29T01:07:35.647Z,102664.77
2018-12-29T01:10:04.973Z,102667.48
2018-12-29T01:12:53.197Z,102678.80
2018-12-29T01:15:41.328Z,102678.45
2018-12-29T01:18:29.511Z,102684.87
2018-12-29T01:21:17.641Z,102687.49
2018-12-29T01:24:05.909Z,102692.39
2018-12-29T01:26:34.777Z,102696.04
2018-12-29T01:29:22.905Z,102685.41
2018-12-29T01:32:11.052Z,102694.87
2018-12-29T01:34:39.951Z,102701.36
2018-12-29T01:37:28.089Z,102701.08
2018-12-29T01:39:56.912Z,102705.17
2018-12-29T01:42:45.040Z,102707.50
2018-12-29T01:45:17.511Z,102709.78
2018-12-29T01:47:44.538Z,102713.44
2018-12-29T01:50:32.648Z,102715.38
2018-12-29T01:53:20.784Z,102717.94
2018-12-29T01:56:08.895Z,102718.00
2018-12-29T01:58:57.067Z,102715.56
2018-12-29T02:01:26.033Z,102716.55
2018-12-29T02:03:55.007Z,102724.06
2018-12-29T02:06:23.945Z,102720.13
2018-12-29T02:08:52.868Z,102720.96
2018-12-29T02:11:21.687Z,102718.19
2018-12-29T02:14:10.171Z,102710.75
2018-12-29T02:16:58.290Z,102711.44
2018-12-29T02:19:27.191Z,102712.75
2018-12-29T02:22:15.037Z,102711.98
2018-12-29T02:24:43.949Z,102706.39
2018-12-29T02:27:12.838Z,102699.50
2018-12-29T02:29:41.734Z,102697.89
2018-12-29T02:32:29.598Z,102697.07
2018-12-29T02:34:58.564Z,102698.38
2018-12-29T02:37:27.397Z,102695.55
2018-12-29T02:40:15.511Z,102694.25
2018-12-29T02:42:44.385Z,102694.79
2018-12-29T02:45:13.245Z,102691.14
2018-12-29T02:47:42.209Z,102688.72
2018-12-29T02:50:11.127Z,102678.48
2018-12-29T02:52:39.925Z,102676.57
2018-12-29T02:55:27.865Z,102669.78
2018-12-29T02:57:56.813Z,102673.95
2018-12-29T03:00:25.646Z,102670.13
2018-12-29T03:02:54.559Z,102672.41
2018-12-29T03:05:23.675Z,102664.88
2018-12-29T03:07:52.546Z,102660.94
2018-12-29T03:10:40.460Z,102665.78
2018-12-29T03:13:09.339Z,102654.81
2018-12-29T03:15:41.717Z,102655.78
2018-12-29T03:18:08.831Z,102656.61
2018-12-29T03:20:37.720Z,102654.77
2018-12-29T03:23:25.879Z,102648.98
2018-12-29T03:25:54.695Z,102657.49
2018-12-29T03:28:42.851Z,102656.03
2018-12-29T03:31:30.981Z,102649.85
2018-12-29T03:33:59.869Z,102641.75
2018-12-29T03:36:47.981Z,102643.97
2018-12-29T03:39:16.790Z,102644.86
2018-12-29T03:41:45.606Z,102646.66
2018-12-29T03:44:14.410Z,102644.04
2018-12-29T03:46:43.320Z,102643.21
2018-12-29T03:49:12.189Z,102640.19
2018-12-29T03:51:41.125Z,102645.62
2018-12-29T03:54:09.961Z,102641.16
2018-12-29T03:59:33.652Z,102642.05
2018-12-29T04:02:21.563Z,102645.69
2018-12-29T04:04:50.409Z,102644.72
2018-12-29T04:07:38.495Z,102644.33
2018-12-29T04:10:29.264Z,102639.13
2018-12-29T04:13:00.151Z,102641.84
2018-12-29T04:15:28.941Z,102641.20
2018-12-29T04:17:57.867Z,102637.56
2018-12-29T04:20:26.667Z,102645.68
2018-12-29T04:22:55.561Z,102640.86
2018-12-29T04:25:43.662Z,102645.20
2018-12-29T04:28:12.500Z,102642.66
2018-12-29T04:31:00.413Z,102642.86
2018-12-29T04:33:48.539Z,102645.88
2018-12-29T04:36:17.375Z,102643.39
2018-12-29T04:39:05.467Z,102640.78
2018-12-29T04:41:53.572Z,102642.86
2018-12-29T04:44:41.691Z,102648.11
2018-12-29T04:47:29.845Z,102642.08
2018-12-29T04:49:58.883Z,102651.41
2018-12-29T04:52:47.010Z,102642.23
2018-12-29T04:55:35.163Z,102639.31
2018-12-29T04:58:04.046Z,102634.50
2018-12-29T05:00:32.861Z,102631.73
2018-12-29T05:03:20.993Z,102630.47
2018-12-29T05:06:09.141Z,102634.06
2018-12-29T05:08:57.244Z,102627.02
2018-12-29T05:11:45.164Z,102621.92
2018-12-29T05:14:14.031Z,102621.67
2018-12-29T05:16:42.857Z,102622.89
2018-12-29T05:19:30.958Z,102627.07
2018-12-29T05:22:39.534Z,102625.91
2018-12-29T05:25:08.534Z,102625.12
2018-12-29T05:27:37.366Z,102637.08
2018-12-29T05:30:46.140Z,102636.59
2018-12-29T05:33:15.248Z,102638.39
2018-12-29T05:36:03.382Z,102643.98
2018-12-29T05:38:51.491Z,102639.84
2018-12-29T05:44:27.411Z,102646.75
2018-12-29T05:47:15.526Z,102651.37
2018-12-29T05:49:44.452Z,102643.72
2018-12-29T05:52:13.245Z,102646.39
2018-12-29T05:54:42.164Z,102645.78
2018-12-29T05:57:10.986Z,102648.55
2018-12-29T05:59:58.895Z,102646.73
2018-12-29T06:02:30.229Z,102644.40
2018-12-29T06:05:18.085Z,102647.31
2018-12-29T06:07:46.984Z,102649.70
2018-12-29T06:10:15.875Z,102647.08
2018-12-29T06:13:04.041Z,102647.41
2018-12-29T06:15:32.859Z,102647.17
2018-12-29T06:18:01.743Z,102650.63
2018-12-29T06:20:30.625Z,102647.02
2018-12-29T06:23:18.735Z,102658.39
2018-12-29T06:25:50.096Z,102655.48
2018-12-29T06:28:18.911Z,102653.34
2018-12-29T06:31:07.136Z,102643.86
2018-12-29T06:33:35.955Z,102649.11
2018-12-29T06:36:04.815Z,102641.58
2018-12-29T06:38:52.933Z,102633.31
2018-12-29T06:41:41.043Z,102638.31
2018-12-29T06:44:49.618Z,102634.82
2018-12-29T06:47:18.524Z,102636.03
2018-12-29T06:49:47.322Z,102632.39
2018-12-29T06:52:35.449Z,102644.95
2018-12-29T06:55:04.355Z,102641.92
2018-12-29T06:57:33.226Z,102642.48
2018-12-29T07:03:09.319Z,102648.48
2018-12-29T07:05:38.143Z,102647.39
2018-12-29T07:08:26.298Z,102646.61
2018-12-29T07:11:14.390Z,102639.37
2018-12-29T07:16:42.221Z,102652.91
2018-12-29T07:19:08.577Z,102654.02
2018-12-29T07:21:37.411Z,102654.21
2018-12-29T07:24:06.267Z,102653.66
2018-12-29T07:26:35.341Z,102643.64
2018-12-29T07:29:04.282Z,102655.02
2018-12-29T07:31:33.179Z,102646.91
2018-12-29T07:34:02.085Z,102642.67
2018-12-29T07:36:31.056Z,102643.64
2018-12-29T07:38:59.971Z,102645.15
2018-12-29T07:41:29.099Z,102654.58
2018-12-29T07:44:17.196Z,102640.88
2018-12-29T07:46:49.578Z,102644.62
2018-12-29T07:49:16.621Z,102633.48
2018-12-29T07:51:45.528Z,102634.89
2018-12-29T07:54:14.459Z,102638.27
2018-12-29T07:57:02.567Z,102628.28
2018-12-29T07:59:50.443Z,102634.59
2018-12-29T08:02:19.349Z,102625.40
2018-12-29T08:04:48.294Z,102630.38
2018-12-29T08:07:17.211Z,102625.81
2018-12-29T08:09:46.070Z,102615.95
2018-12-29T08:12:14.932Z,102605.03
2018-12-29T08:14:43.861Z,102611.75
2018-12-29T08:17:12.740Z,102598.02
2018-12-29T08:19:41.623Z,102595.73
2018-12-29T08:22:10.425Z,102594.12
2018-12-29T08:24:39.313Z,102586.88
2018-12-29T08:27:08.230Z,102584.36
2018-12-29T08:29:37.045Z,102580.91
2018-12-29T08:32:05.956Z,102584.47
2018-12-29T08:34:34.881Z,102582.52
2018-12-29T08:37:03.771Z,102575.20
2018-12-29T08:39:32.784Z,102579.63
2018-12-29T08:42:01.822Z,102581.29
2018-12-29T08:44:30.712Z,102573.56
2018-12-29T08:47:04.521Z,102568.83
2018-12-29T08:49:31.531Z,102563.91
2018-12-29T08:52:00.490Z,102568.13
2018-12-29T08:54:29.330Z,102571.76
2018-12-29T08:56:58.221Z,102576.59
2018-12-29T08:59:27.211Z,102576.78
2018-12-29T09:01:56.102Z,102582.56
2018-12-29T09:04:25.015Z,102577.12
2018-12-29T09:06:53.874Z,102584.33
2018-12-29T09:09:22.865Z,102576.70
2018-12-29T09:11:51.725Z,102574.16
2018-12-29T09:14:20.639Z,102575.20
2018-12-29T09:16:49.622Z,102581.89
2018-12-29T09:19:18.432Z,102577.95
2018-12-29T09:21:47.246Z,102573.19
2018-12-29T09:24:16.126Z,102570.90
2018-12-29T09:26:45.153Z,102569.94
2018-12-29T09:30:20.573Z,102562.60
2018-12-29T09:32:49.509Z,102566.61
2018-12-29T09:35:48.878Z,102553.07
2018-12-29T09:39:09.098Z,102549.84
2018-12-29T09:41:38.033Z,102548.03
2018-12-29T09:44:06.952Z,102543.61
2018-12-29T09:46:35.888Z,102538.08
2018-12-29T09:49:04.784Z,102537.38
2018-12-29T09:51:33.610Z,102531.03
2018-12-29T09:54:03.559Z,102532.16
2018-12-29T09:56:32.552Z,102529.87
2018-12-29T09:59:01.373Z,102521.41
2018-12-29T10:01:30.189Z,102518.66
2018-12-29T10:03:59.069Z,102516.61
2018-12-29T10:06:27.862Z,102516.12
2018-12-29T10:08:56.857Z,102506.01
2018-12-29T10:11:25.817Z,102504.87
2018-12-29T10:13:54.784Z,102505.22
2018-12-29T10:16:23.726Z,102503.90
2018-12-29T10:18:52.694Z,102501.84
2018-12-29T10:21:21.632Z,102496.17
2018-12-29T10:23:50.477Z,102493.16
2018-12-29T10:26:22.281Z,102488.23
2018-12-29T10:28:51.200Z,102486.33
2018-12-29T10:31:20.120Z,102472.27
2018-12-29T10:34:07.166Z,102470.16
2018-12-29T10:36:36.094Z,102477.55
2018-12-29T10:39:07.388Z,102478.63
2018-12-29T10:41:36.310Z,102468.36
2018-12-29T10:44:05.380Z,102467.02
2018-12-29T10:46:34.434Z,102460.39
2018-12-29T10:49:03.429Z,102463.41
2018-12-29T10:51:32.320Z,102461.63
2018-12-29T10:54:01.427Z,102452.92
2018-12-29T10:56:30.367Z,102444.02
2018-12-29T10:58:59.250Z,102436.42
2018-12-29T11:04:56.457Z,102421.38
2018-12-29T11:07:25.472Z,102411.86
2018-12-29T11:09:54.361Z,102416.14
2018-12-29T11:12:23.177Z,102406.43
2018-12-29T11:14:51.988Z,102407.59
2018-12-29T11:17:20.891Z,102411.35
2018-12-29T11:19:49.828Z,102406.59
2018-12-29T11:22:18.758Z,102403.63
2018-12-29T11:24:47.734Z,102397.06
2018-12-29T11:27:16.747Z,102386.09
2018-12-29T11:29:45.708Z,102387.22
2018-12-29T11:32:14.610Z,102380.80
2018-12-29T11:34:43.599Z,102387.56
2018-12-29T11:37:12.519Z,102379.65
2018-12-29T11:39:41.427Z,102373.59
2018-12-29T11:42:10.356Z,102370.80
2018-12-29T11:44:39.283Z,102366.52
2018-12-29T11:47:08.208Z,102367.84
2018-12-29T11:49:37.337Z,102357.98
2018-12-29T11:52:06.339Z,102346.43
2018-12-29T11:54:35.324Z,102338.44
2018-12-29T11:57:04.186Z,102338.28
2018-12-29T11:59:33.021Z,102341.30
2018-12-29T12:02:03.735Z,102335.39
2018-12-29T12:04:32.728Z,102350.77
2018-12-29T12:07:01.983Z,102342.02
2018-12-29T12:09:30.919Z,102337.45
2018-12-29T12:11:59.819Z,102327.78
2018-12-29T12:17:57.814Z,102306.80
2018-12-29T12:20:27.072Z,102325.16
2018-12-29T12:22:55.965Z,102323.98
2018-12-29T12:25:24.915Z,102313.66
2018-12-29T12:27:54.092Z,102311.20
2018-12-29T12:30:23.000Z,102307.76
2018-12-29T12:32:51.950Z,102310.38
2018-12-29T12:35:20.896Z,102310.09
2018-12-29T12:37:49.861Z,102299.21
2018-12-29T12:40:18.718Z,102295.80
2018-12-29T12:42:47.570Z,102286.90
2018-12-29T12:45:16.430Z,102283.28
2018-12-29T12:47:45.379Z,102273.80
2018-12-29T12:50:14.310Z,102269.16
2018-12-29T12:52:43.323Z,102266.03
2018-12-29T12:55:12.311Z,102267.02
2018-12-29T12:57:41.167Z,102267.18
2018-12-29T13:00:10.515Z,102253.89
2018-12-29T13:02:41.588Z,102254.59
2018-12-29T13:05:10.559Z,102235.86
2018-12-29T13:07:39.483Z,102240.46
2018-12-29T13:10:08.645Z,102241.41
2018-12-29T13:12:37.575Z,102226.47
2018-12-29T13:15:06.563Z,102226.13
2018-12-29T13:17:35.500Z,102222.35
2018-12-29T13:20:05.139Z,102207.74
2018-12-29T13:22:34.100Z,102210.66
2018-12-29T13:25:03.008Z,102205.77
2018-12-29T13:27:31.984Z,102207.91
2018-12-29T13:30:00.882Z,102200.19
2018-12-29T13:32:29.876Z,102186.06
2018-12-29T13:34:58.900Z,102191.16
2018-12-29T13:37:27.806Z,102185.08
2018-12-29T13:39:56.808Z,102179.33
2018-12-29T13:42:25.768Z,102161.27
2018-12-29T13:44:54.675Z,102167.71
2018-12-29T13:47:23.677Z,102163.61
2018-12-29T13:49:52.497Z,102152.23
2018-12-29T13:52:21.455Z,102152.73
2018-12-29T13:54:50.334Z,102147.31
2018-12-29T13:57:20.286Z,102147.48
2018-12-29T13:59:49.590Z,102139.95
2018-12-29T14:02:18.567Z,102134.70
2018-12-29T14:08:16.419Z,102133.55
2018-12-29T14:11:04.397Z,102119.40
2018-12-29T14:13:33.278Z,102116.08
2018-12-29T14:16:21.733Z,102105.11
2018-12-29T14:21:57.481Z,102086.72
2018-12-29T14:24:45.627Z,102080.15
2018-12-29T14:27:14.559Z,102075.55
2018-12-29T14:29:43.534Z,102066.50
2018-12-29T14:32:12.811Z,102053.53
2018-12-29T14:34:43.447Z,102047.64
2018-12-29T14:37:53.947Z,102052.21
2018-12-29T14:40:22.877Z,102040.09
2018-12-29T14:42:51.724Z,102039.75
2018-12-29T14:46:02.432Z,102034.17
2018-12-29T14:48:35.846Z,102038.94
2018-12-29T14:51:07.918Z,102031.55
2018-12-29T14:53:36.896Z,102023.81
2018-12-29T14:56:05.789Z,102014.78
2018-12-29T14:58:34.780Z,102002.14
2018-12-29T15:01:03.692Z,102004.28
2018-12-29T15:03:32.507Z,101993.11
2018-12-29T15:06:01.470Z,101975.86
2018-12-29T15:08:30.426Z,101982.44
2018-12-29T15:10:59.344Z,101969.63
2018-12-29T15:13:28.548Z,101963.89
2018-12-29T15:15:57.461Z,101973.08
2018-12-29T15:18:26.453Z,101965.86
2018-12-29T15:20:55.494Z,101970.45
2018-12-29T15:23:24.426Z,101965.86
2018-12-29T15:25:53.623Z,101980.95
2018-12-29T15:28:22.675Z,101978.97
2018-12-29T15:30:51.598Z,101977.19
2018-12-29T15:33:20.516Z,101958.14
2018-12-29T15:35:49.416Z,101953.04
2018-12-29T15:38:18.240Z,101950.41
2018-12-29T15:40:47.531Z,101936.62
2018-12-29T15:43:19.726Z,101935.64
2018-12-29T15:45:48.559Z,101934.00
2018-12-29T15:48:17.556Z,101932.03
2018-12-29T15:50:46.473Z,101933.68
2018-12-29T15:53:15.378Z,101916.95
2018-12-29T15:55:44.250Z,101918.27
2018-12-29T15:58:13.520Z,101909.73
2018-12-29T16:00:42.420Z,101909.56
2018-12-29T16:03:12.111Z,101904.79
2018-12-29T16:05:40.959Z,101892.31
2018-12-29T16:08:09.988Z,101895.11
2018-12-29T16:10:39.001Z,101887.41
2018-12-29T16:13:07.978Z,101889.36
2018-12-29T16:15:37.028Z,101887.42
2018-12-29T16:18:05.919Z,101863.11
2018-12-29T16:20:34.844Z,101861.81
2018-12-29T16:23:03.850Z,101855.90
2018-12-29T16:29:01.623Z,101841.97
2018-12-29T16:31:30.571Z,101828.00
2018-12-29T16:33:59.528Z,101827.70
2018-12-29T16:36:28.854Z,101830.13
2018-12-29T16:38:57.900Z,101830.97
2018-12-29T16:41:26.689Z,101816.53
2018-12-29T16:43:55.895Z,101804.05
2018-12-29T16:46:24.897Z,101810.63
2018-12-29T16:48:53.823Z,101796.49
2018-12-29T16:51:22.812Z,101784.05
2018-12-29T16:53:51.940Z,101796.51
2018-12-29T16:56:22.462Z,101785.17
2018-12-29T16:58:51.433Z,101792.23
2018-12-29T17:01:20.402Z,101772.22
2018-12-29T17:03:49.601Z,101772.86
2018-12-29T17:06:18.493Z,101743.62
2018-12-29T17:08:47.316Z,101761.02
2018-12-29T17:11:16.303Z,101765.27
2018-12-29T17:13:45.642Z,101742.97
2018-12-29T17:16:14.598Z,101743.78
2018-12-29T17:18:43.425Z,101743.27
2018-12-29T17:21:12.972Z,101744.88
2018-12-29T17:23:41.745Z,101730.75
2018-12-29T17:26:10.662Z,101731.06
2018-12-29T17:28:39.458Z,101731.42
2018-12-29T17:31:08.465Z,101726.69
2018-12-29T17:33:37.403Z,101720.11
2018-12-29T17:36:06.293Z,101716.48
2018-12-29T17:38:35.150Z,101717.31
2018-12-29T17:41:04.331Z,101718.47
2018-12-29T17:43:33.366Z,101716.80
2018-12-29T17:46:02.306Z,101697.13
2018-12-29T17:48:31.269Z,101705.16
2018-12-29T17:51:00.203Z,101691.71
2018-12-29T17:53:29.526Z,101684.81
2018-12-29T17:55:58.525Z,101682.16
2018-12-29T17:58:27.434Z,101687.28
2018-12-29T18:00:56.387Z,101669.73
2018-12-29T18:03:25.487Z,101662.83
2018-12-29T18:05:54.849Z,101650.48
2018-12-29T18:08:23.974Z,101658.36
2018-12-29T18:10:52.989Z,101638.83
2018-12-29T18:13:22.038Z,101645.89
2018-12-29T18:15:51.064Z,101639.30
2018-12-29T18:18:22.862Z,101639.27
2018-12-29T18:20:52.821Z,101645.69
2018-12-29T18:23:21.828Z,101635.88
2018-12-29T18:25:50.757Z,101626.30
2018-12-29T18:28:19.694Z,101621.91
2018-12-29T18:30:48.653Z,101621.41
2018-12-29T18:33:17.681Z,101625.66
2018-12-29T18:35:46.683Z,101616.65
2018-12-29T18:38:48.931Z,101616.33
2018-12-29T18:41:18.122Z,101610.55
2018-12-29T18:43:47.084Z,101612.70
2018-12-29T18:46:17.051Z,101601.70
2018-12-29T18:48:46.010Z,101602.16
2018-12-29T18:51:50.853Z,101595.59
2018-12-29T18:54:22.569Z,101591.98
2018-12-29T18:56:51.813Z,101591.80
2018-12-29T18:59:20.977Z,101586.27
2018-12-29T19:01:57.408Z,101587.40
2018-12-29T19:04:20.976Z,101580.66
2018-12-29T19:06:49.901Z,101577.25
2018-12-29T19:09:28.283Z,101580.05
2018-12-29T19:11:57.233Z,101572.45
2018-12-29T19:14:26.109Z,101572.09
2018-12-29T19:16:55.487Z,101564.17
2018-12-29T19:19:24.991Z,101561.27
2018-12-29T19:21:53.929Z,101564.39
2018-12-29T19:24:22.830Z,101552.70
2018-12-29T19:26:53.930Z,101552.88
2018-12-29T19:29:22.530Z,101552.34
2018-12-29T19:31:52.558Z,101548.23
2018-12-29T19:34:22.700Z,101548.05
2018-12-29T19:36:51.698Z,101539.20
2018-12-29T19:39:21.062Z,101544.70
2018-12-29T19:41:54.943Z,101540.30
2018-12-29T19:44:20.776Z,101542.89
2018-12-29T19:46:49.963Z,101544.38
2018-12-29T19:49:18.967Z,101530.23
2018-12-29T19:51:47.883Z,101532.86
2018-12-29T19:54:17.280Z,101528.44
2018-12-29T19:56:46.284Z,101528.28
2018-12-29T19:59:15.531Z,101533.68
2018-12-29T20:01:47.543Z,101535.49
2018-12-29T20:04:16.926Z,101531.69
2018-12-29T20:06:45.781Z,101539.20
2018-12-29T20:09:47.733Z,101534.50
2018-12-29T20:12:16.726Z,101527.92
2018-12-29T20:14:45.607Z,101534.19
2018-12-29T20:17:14.522Z,101528.30
2018-12-29T20:20:38.098Z,101526.30
2018-12-29T20:23:07.141Z,101527.30
2018-12-29T20:25:57.331Z,101526.97
2018-12-29T20:28:26.399Z,101517.83
2018-12-29T20:30:55.298Z,101531.47
2018-12-29T20:33:24.601Z,101522.45
2018-12-29T20:35:53.518Z,101531.15
2018-12-29T20:38:41.651Z,101528.74
2018-12-29T20:41:29.804Z,101526.75
2018-12-29T20:47:05.872Z,101528.11
2018-12-29T20:49:53.998Z,101522.53
2018-12-29T20:52:42.149Z,101528.79
2018-12-29T20:55:30.297Z,101527.20
2018-12-29T20:58:18.442Z,101530.47
2018-12-29T21:01:27.084Z,101524.07
2018-12-29T21:03:55.946Z,101529.64
2018-12-29T21:06:24.899Z,101524.94
2018-12-29T21:08:53.720Z,101526.70
2018-12-29T21:11:22.654Z,101533.81
2018-12-29T21:13:51.751Z,101530.50
2018-12-29T21:16:20.639Z,101530.83
2018-12-29T21:18:50.114Z,101531.46
2018-12-29T21:21:19.102Z,101531.46
2018-12-29T21:23:48.028Z,101536.39
2018-12-29T21:26:17.168Z,101539.06
2018-12-29T21:28:46.182Z,101535.44
2018-12-29T21:31:15.218Z,101543.95
2018-12-29T21:33:44.183Z,101541.83
2018-12-29T21:36:13.184Z,101541.64
2018-12-29T21:38:42.187Z,101542.61
2018-12-29T21:41:11.229Z,101546.27
2018-12-29T21:43:40.382Z,101548.57
2018-12-29T21:46:09.428Z,101546.91
2018-12-29T21:48:38.429Z,101552.02
2018-12-29T21:51:07.424Z,101555.28
2018-12-29T21:53:36.484Z,101552.16
2018-12-29T21:56:05.396Z,101557.45
2018-12-29T21:58:34.720Z,101561.56
2018-12-29T22:01:03.714Z,101556.17
2018-12-29T22:03:32.661Z,101558.09
2018-12-29T22:06:01.527Z,101555.28
2018-12-29T22:08:30.453Z,101564.33
2018-12-29T22:10:59.442Z,101572.21
2018-12-29T22:13:28.405Z,101568.09
2018-12-29T22:15:57.312Z,101579.41
2018-12-29T22:18:26.160Z,101575.02
2018-12-29T22:20:55.188Z,101575.48
2018-12-29T22:23:24.251Z,101579.05
2018-12-29T22:25:53.620Z,101578.56
2018-12-29T22:28:22.492Z,101582.19
2018-12-29T22:30:51.473Z,101585.66
2018-12-29T22:33:20.462Z,101583.67
2018-12-29T22:35:49.425Z,101585.98
2018-12-29T22:38:18.912Z,101583.35
2018-12-29T22:40:47.798Z,101592.37
2018-12-29T22:43:16.811Z,101591.09
2018-12-29T22:45:45.790Z,101595.49
2018-12-29T22:48:14.775Z,101590.56
2018-12-29T22:50:43.700Z,101596.80
2018-12-29T22:53:12.700Z,101586.62
2018-12-29T22:55:41.667Z,101588.29
2018-12-29T22:58:10.626Z,101592.41
2018-12-29T23:00:41.417Z,101588.08
2018-12-29T23:03:10.440Z,101593.50
2018-12-29T23:05:39.409Z,101590.70
2018-12-29T23:08:08.430Z,101590.88
2018-12-29T23:10:37.394Z,101591.38
2018-12-29T23:13:06.429Z,101605.97
2018-12-29T23:15:35.336Z,101598.58
2018-12-29T23:18:06.805Z,101600.89
2018-12-29T23:20:36.169Z,101600.03
2018-12-29T23:23:05.117Z,101600.85
2018-12-29T23:25:34.140Z,101613.81
2018-12-29T23:28:03.157Z,101610.55
2018-12-29T23:30:32.021Z,101618.89
2018-12-29T23:33:00.917Z,101621.38
2018-12-29T23:35:30.729Z,101621.52
2018-12-29T23:38:00.251Z,101610.55
2018-12-29T23:40:29.136Z,101613.49
2018-12-29T23:42:58.023Z,101627.63
2018-12-29T23:45:26.938Z,101635.50
2018-12-29T23:47:55.876Z,101642.06
2018-12-29T23:50:27.124Z,101644.02
2018-12-29T23:52:57.824Z,101637.13
2018-12-29T23:55:27.196Z,101641.72
2018-12-29T23:57:56.157Z,101641.39
